Time;durP1;ratioP1;P1;durP2;ratioP2;P2;SDS_P1;SDS_P2;PMS_P1;PMS_P2;Temp;Humidity;BMP_temperature;BMP_pressure;BME280_temperature;BME280_humidity;BME280_pressure;Samples;Min_cycle;Max_cycle;Signal;HPM_P1;HPM_P2
2024/01/12 00:00:17;;;;;;;8.70;6.70;;;22.70;51.40;;;;;;6247228;23;20767;-88
2024/01/12 00:02:44;;;;;;;10.50;5.67;;;22.70;51.40;;;;;;6247290;23;20405;-95
2024/01/12 00:05:11;;;;;;;6.93;5.90;;;22.70;51.40;;;;;;6246722;23;20904;-88
2024/01/12 00:07:38;;;;;;;6.57;5.87;;;22.70;51.40;;;;;;6246752;23;20437;-87
2024/01/12 00:10:08;;;;;;;8.20;6.87;;;22.70;51.90;;;;;;6246671;23;21074;-88
2024/01/12 00:12:35;;;;;;;7.30;6.57;;;22.70;51.30;;;;;;6247038;23;20447;-87
2024/01/12 00:15:02;;;;;;;7.77;6.97;;;22.70;51.30;;;;;;6246816;23;20476;-87
2024/01/12 00:17:29;;;;;;;9.20;5.50;;;22.70;51.30;;;;;;6246810;23;20405;-88
2024/01/12 00:19:56;;;;;;;9.57;6.67;;;22.70;51.30;;;;;;6246937;23;20429;-87
2024/01/12 00:22:23;;;;;;;6.67;5.57;;;22.60;51.20;;;;;;6246415;23;20999;-87
2024/01/12 00:24:50;;;;;;;8.37;5.97;;;22.70;51.20;;;;;;6246572;23;20405;-92
2024/01/12 00:27:18;;;;;;;8.23;6.60;;;22.70;51.30;;;;;;6246811;23;20535;-87
2024/01/12 00:29:45;;;;;;;6.00;5.47;;;22.70;51.80;;;;;;6247203;23;20460;-87
2024/01/12 00:32:11;;;;;;;5.70;5.10;;;22.70;51.20;;;;;;6246941;23;20492;-90
2024/01/12 00:34:38;;;;;;;7.10;5.70;;;22.70;51.20;;;;;;6246929;23;20404;-88
2024/01/12 00:37:05;;;;;;;6.63;5.97;;;22.70;51.20;;;;;;6247142;23;20397;-88
2024/01/12 00:39:32;;;;;;;6.53;5.83;;;22.70;51.20;;;;;;6246519;23;20991;-88
2024/01/12 00:41:59;;;;;;;8.27;6.10;;;22.60;51.10;;;;;;6247054;23;20757;-88
2024/01/12 00:44:28;;;;;;;6.13;5.53;;;22.70;51.20;;;;;;6246682;23;20487;-88
2024/01/12 00:46:55;;;;;;;6.53;5.80;;;22.70;51.20;;;;;;6246878;23;20412;-91
2024/01/12 00:49:22;;;;;;;6.70;5.57;;;22.60;51.20;;;;;;6246422;23;20409;-87
2024/01/12 00:51:49;;;;;;;5.90;5.40;;;22.60;51.20;;;;;;6246763;23;20441;-87
2024/01/12 00:54:16;;;;;;;8.40;6.80;;;22.60;51.10;;;;;;6246687;23;20429;-87
2024/01/12 00:56:44;;;;;;;6.03;5.43;;;22.60;51.20;;;;;;6246526;23;20449;-87
2024/01/12 00:59:10;;;;;;;6.93;6.20;;;22.60;51.20;;;;;;6246607;23;20436;-88
2024/01/12 01:01:39;;;;;;;6.07;5.40;;;22.60;51.10;;;;;;6246893;23;20405;-87
2024/01/12 01:04:05;;;;;;;5.63;5.20;;;22.60;51.10;;;;;;6246923;23;20485;-87
2024/01/12 01:06:32;;;;;;;6.23;5.00;;;22.60;51.70;;;;;;6246855;23;20481;-88
2024/01/12 01:08:59;;;;;;;5.67;5.00;;;22.60;51.10;;;;;;6246625;23;20524;-88
2024/01/12 01:11:26;;;;;;;5.33;4.83;;;22.60;51.10;;;;;;6246203;23;20401;-95
2024/01/12 01:13:53;;;;;;;8.87;5.57;;;22.60;51.10;;;;;;6246373;23;20411;-87
2024/01/12 01:16:21;;;;;;;6.60;5.90;;;22.60;51.10;;;;;;6246845;23;20463;-87
2024/01/12 01:18:49;;;;;;;6.20;5.60;;;22.60;51.10;;;;;;6246572;23;20439;-87
2024/01/12 01:21:16;;;;;;;6.60;5.43;;;22.60;51.10;;;;;;6246219;23;20457;-87
2024/01/12 01:23:43;;;;;;;6.13;5.37;;;22.60;51.10;;;;;;6246486;23;20788;-87
2024/01/12 01:26:10;;;;;;;4.20;3.67;;;22.60;51.10;;;;;;6246574;23;20787;-88
2024/01/12 01:28:37;;;;;;;6.53;5.93;;;22.60;51.00;;;;;;6246233;23;20480;-90
2024/01/12 01:31:04;;;;;;;6.23;5.03;;;22.60;51.00;;;;;;6246405;23;20401;-94
2024/01/12 01:33:31;;;;;;;5.63;5.13;;;22.60;51.00;;;;;;6246412;23;20916;-88
2024/01/12 01:35:59;;;;;;;7.00;6.30;;;22.60;51.10;;;;;;6246578;23;20915;-95
2024/01/12 01:38:26;;;;;;;7.20;5.40;;;22.60;51.00;;;;;;6246339;23;20718;-87
2024/01/12 01:40:52;;;;;;;5.50;5.00;;;22.60;51.00;;;;;;6246364;23;20473;-87
2024/01/12 01:43:21;;;;;;;6.43;5.43;;;22.60;51.00;;;;;;6246056;23;20492;-87
2024/01/12 01:45:48;;;;;;;5.30;4.80;;;22.60;51.00;;;;;;6246280;23;20428;-87
2024/01/12 01:48:16;;;;;;;6.00;5.40;;;22.60;51.00;;;;;;6246193;23;20448;-88
2024/01/12 01:50:43;;;;;;;4.90;4.50;;;22.60;51.00;;;;;;6245981;23;20971;-87
2024/01/12 01:53:12;;;;;;;5.20;4.70;;;22.60;51.00;;;;;;6246043;23;20433;-87
2024/01/12 01:55:38;;;;;;;5.63;5.03;;;22.60;51.00;;;;;;6245959;23;20508;-87
2024/01/12 01:58:05;;;;;;;6.83;5.93;;;22.60;51.00;;;;;;6246601;23;20405;-94
2024/01/12 02:00:33;;;;;;;5.77;5.10;;;22.60;51.00;;;;;;6246508;23;20433;-87
2024/01/12 02:03:01;;;;;;;5.30;4.80;;;22.60;51.00;;;;;;6247594;23;20896;-87
2024/01/12 02:05:29;;;;;;;5.63;4.97;;;22.60;51.00;;;;;;6247867;23;20428;-87
2024/01/12 02:07:57;;;;;;;5.00;4.57;;;22.60;51.00;;;;;;6247941;23;20475;-88
2024/01/12 02:10:25;;;;;;;5.50;5.00;;;22.60;51.00;;;;;;6247942;23;20433;-87
2024/01/12 02:12:52;;;;;;;5.90;5.00;;;22.60;50.90;;;;;;6248356;23;20433;-87
2024/01/12 02:15:19;;;;;;;6.40;5.73;;;22.60;50.90;;;;;;6247761;23;20495;-88
2024/01/12 02:17:47;;;;;;;5.50;5.00;;;22.60;50.90;;;;;;6247860;23;20440;-87
2024/01/12 02:20:14;;;;;;;6.30;5.47;;;22.60;50.90;;;;;;6247853;23;20413;-87
2024/01/12 02:22:42;;;;;;;6.67;5.97;;;22.60;50.90;;;;;;6248232;23;20420;-91
2024/01/12 02:25:10;;;;;;;5.53;4.93;;;22.60;50.90;;;;;;6247948;23;20424;-87
2024/01/12 02:27:37;;;;;;;5.23;4.73;;;22.60;50.90;;;;;;6247730;23;20429;-87
2024/01/12 02:30:05;;;;;;;5.43;4.80;;;22.60;51.00;;;;;;6248155;23;20444;-93
2024/01/12 02:32:32;;;;;;;4.97;4.40;;;22.60;50.90;;;;;;6248061;23;20492;-88
2024/01/12 02:34:59;;;;;;;6.67;5.60;;;22.60;50.90;;;;;;6248014;23;20428;-88
2024/01/12 02:37:26;;;;;;;6.10;5.50;;;22.60;50.90;;;;;;6247604;23;20483;-87
2024/01/12 02:39:54;;;;;;;6.30;5.70;;;22.60;50.90;;;;;;6247787;23;20476;-87
2024/01/12 02:42:21;;;;;;;4.87;4.40;;;22.50;50.80;;;;;;6247940;23;20479;-87
2024/01/12 02:44:48;;;;;;;7.80;5.53;;;22.50;50.80;;;;;;6247678;23;20429;-87
2024/01/12 02:47:14;;;;;;;5.87;5.27;;;22.50;50.80;;;;;;6247489;23;20448;-87
2024/01/12 02:49:43;;;;;;;5.97;5.17;;;22.50;50.80;;;;;;6247976;23;20496;-87
2024/01/12 02:52:09;;;;;;;6.43;5.83;;;22.50;50.80;;;;;;6247439;23;20912;-87
2024/01/12 02:54:36;;;;;;;5.20;4.70;;;22.50;50.80;;;;;;6247916;23;20568;-88
2024/01/12 02:57:05;;;;;;;6.07;5.43;;;22.50;50.80;;;;;;6247546;23;20723;-93
2024/01/12 02:59:32;;;;;;;6.40;5.80;;;22.50;50.80;;;;;;6247388;23;20398;-87
2024/01/12 03:01:59;;;;;;;5.30;4.80;;;22.50;50.80;;;;;;6247344;23;20999;-91
2024/01/12 03:04:25;;;;;;;6.00;4.33;;;22.50;50.80;;;;;;6247288;23;20931;-87
2024/01/12 03:06:52;;;;;;;5.50;5.00;;;22.50;50.90;;;;;;6247804;23;20435;-88
2024/01/12 03:09:19;;;;;;;6.00;5.00;;;22.50;50.90;;;;;;6247483;23;20495;-88
2024/01/12 03:11:46;;;;;;;4.77;4.37;;;22.50;50.80;;;;;;6247571;23;20480;-88
2024/01/12 03:14:14;;;;;;;7.10;5.63;;;22.50;50.90;;;;;;6246795;23;20484;-87
2024/01/12 03:16:41;;;;;;;5.70;5.10;;;22.50;50.90;;;;;;6247471;23;20425;-87
2024/01/12 03:19:08;;;;;;;5.83;4.80;;;22.50;50.90;;;;;;6247751;23;20436;-88
2024/01/12 03:21:34;;;;;;;5.60;4.67;;;22.40;50.90;;;;;;6247056;23;20459;-87
2024/01/12 03:24:01;;;;;;;6.37;5.03;;;22.50;50.90;;;;;;6247549;23;20421;-89
2024/01/12 03:26:28;;;;;;;4.80;4.40;;;22.50;50.80;;;;;;6247031;23;20444;-87
2024/01/12 03:28:55;;;;;;;5.40;4.90;;;22.50;50.80;;;;;;6247385;23;20535;-87
2024/01/12 03:31:23;;;;;;;5.67;5.17;;;22.50;50.90;;;;;;6247513;23;20428;-87
2024/01/12 03:33:50;;;;;;;5.03;4.53;;;22.50;50.90;;;;;;6247401;23;20440;-88
2024/01/12 03:36:18;;;;;;;5.47;4.70;;;22.50;50.80;;;;;;6246850;23;20781;-88
2024/01/12 03:38:46;;;;;;;6.00;5.40;;;22.50;51.50;;;;;;6247808;23;20427;-87
2024/01/12 03:41:12;;;;;;;5.90;5.30;;;22.40;50.70;;;;;;6248043;23;20432;-88
2024/01/12 03:43:38;;;;;;;5.33;4.90;;;22.40;50.80;;;;;;6247016;23;20405;-88
2024/01/12 03:46:05;;;;;;;6.17;5.00;;;22.40;50.80;;;;;;6246982;23;20444;-89
2024/01/12 03:48:33;;;;;;;5.90;5.10;;;22.40;50.80;;;;;;6247293;23;20193;-88
2024/01/12 03:51:00;;;;;;;5.73;5.13;;;22.40;50.80;;;;;;6246923;23;20413;-88
2024/01/12 03:53:27;;;;;;;4.83;4.03;;;22.40;50.80;;;;;;6247306;23;20527;-88
2024/01/12 03:55:54;;;;;;;5.90;4.90;;;22.40;50.90;;;;;;6247029;23;20453;-88
2024/01/12 03:58:20;;;;;;;4.80;4.30;;;22.40;50.80;;;;;;6246864;23;20492;-88
2024/01/12 04:00:47;;;;;;;5.20;4.50;;;22.40;50.80;;;;;;6247185;23;20427;-93
2024/01/12 04:03:14;;;;;;;5.20;4.70;;;22.40;50.80;;;;;;6246797;23;20492;-88
2024/01/12 04:05:42;;;;;;;5.30;4.77;;;22.40;50.80;;;;;;6247208;23;20428;-88
2024/01/12 04:08:09;;;;;;;5.77;5.27;;;22.40;50.80;;;;;;6246759;23;20475;-88
2024/01/12 04:10:37;;;;;;;5.30;4.80;;;22.40;50.80;;;;;;6247205;23;20931;-89
2024/01/12 04:13:04;;;;;;;4.67;4.27;;;22.30;50.80;;;;;;6247252;23;20431;-90
2024/01/12 04:15:31;;;;;;;4.73;4.33;;;22.30;50.80;;;;;;6247161;23;20425;-88
2024/01/12 04:17:57;;;;;;;5.73;5.20;;;22.30;50.80;;;;;;6246742;23;20488;-90
2024/01/12 04:20:24;;;;;;;4.63;4.23;;;22.30;50.80;;;;;;6246633;23;20516;-88
2024/01/12 04:22:52;;;;;;;5.10;4.60;;;22.30;50.80;;;;;;6246829;23;20759;-88
2024/01/12 04:25:19;;;;;;;5.00;4.50;;;22.30;50.80;;;;;;6246647;23;20503;-88
2024/01/12 04:27:46;;;;;;;5.27;4.87;;;22.30;50.80;;;;;;6247922;23;20492;-88
2024/01/12 04:30:13;;;;;;;5.10;4.60;;;22.30;50.80;;;;;;6246742;23;20908;-87
2024/01/12 04:32:40;;;;;;;6.20;4.37;;;22.30;50.80;;;;;;6246796;23;20797;-89
2024/01/12 04:35:08;;;;;;;5.00;4.30;;;22.30;50.70;;;;;;6246541;23;20484;-88
2024/01/12 04:37:35;;;;;;;4.70;4.30;;;22.30;50.80;;;;;;6246821;23;20732;-88
2024/01/12 04:40:05;;;;;;;4.93;4.43;;;22.30;50.80;;;;;;6246672;23;20440;-88
2024/01/12 04:42:32;;;;;;;4.77;4.37;;;22.30;50.70;;;;;;6247003;23;20675;-88
2024/01/12 04:44:59;;;;;;;4.10;3.77;;;22.30;50.70;;;;;;6246796;23;20428;-87
2024/01/12 04:47:26;;;;;;;4.90;4.50;;;22.30;50.70;;;;;;6246785;23;20500;-87
2024/01/12 04:49:53;;;;;;;4.50;4.10;;;22.40;50.80;;;;;;6247250;23;20472;-87
2024/01/12 04:52:19;;;;;;;4.07;3.70;;;22.30;50.70;;;;;;6246180;23;20908;-87
2024/01/12 04:54:46;;;;;;;4.23;3.93;;;22.40;50.70;;;;;;6246255;23;20440;-93
2024/01/12 04:57:14;;;;;;;4.70;4.30;;;22.40;50.70;;;;;;6246270;23;20946;-95
2024/01/12 04:59:42;;;;;;;4.90;4.40;;;22.40;50.70;;;;;;6246743;23;20411;-86
2024/01/12 05:02:09;;;;;;;6.30;4.43;;;22.40;50.70;;;;;;6246146;23;20956;-87
2024/01/12 05:04:36;;;;;;;4.80;4.30;;;22.40;51.20;;;;;;6246252;23;20433;-87
2024/01/12 05:07:03;;;;;;;4.63;4.23;;;22.40;50.70;;;;;;6245944;23;20488;-86
2024/01/12 05:09:30;;;;;;;4.77;4.37;;;22.40;50.60;;;;;;6246298;23;20483;-90
2024/01/12 05:11:59;;;;;;;4.20;3.90;;;22.40;50.60;;;;;;6246769;23;20488;-88
2024/01/12 05:14:27;;;;;;;5.03;4.63;;;22.40;50.60;;;;;;6246359;23;20411;-87
2024/01/12 05:16:54;;;;;;;5.83;4.90;;;22.40;50.70;;;;;;6246494;23;20433;-87
2024/01/12 05:19:21;;;;;;;5.67;5.17;;;22.50;50.50;;;;;;6246153;23;20785;-87
2024/01/12 05:21:48;;;;;;;6.07;5.50;;;22.60;50.30;;;;;;6246126;23;21019;-86
2024/01/12 05:24:15;;;;;;;8.07;6.50;;;22.50;49.10;;;;;;6246346;23;20444;-88
2024/01/12 05:26:42;;;;;;;105.53;14.43;;;22.30;48.50;;;;;;6246480;23;20460;-85
2024/01/12 05:29:10;;;;;;;26.20;7.27;;;22.20;49.10;;;;;;6246289;23;20527;-85
2024/01/12 05:31:38;;;;;;;40.77;7.50;;;22.20;49.40;;;;;;6246310;23;20408;-86
2024/01/12 05:34:05;;;;;;;42.60;7.83;;;22.20;49.80;;;;;;6246126;23;20944;-93
2024/01/12 05:36:31;;;;;;;43.20;7.73;;;22.20;49.60;;;;;;6246152;23;20484;-85
2024/01/12 05:38:58;;;;;;;34.73;8.43;;;22.20;49.60;;;;;;6246431;23;20416;-88
2024/01/12 05:41:25;;;;;;;26.83;6.70;;;22.30;50.10;;;;;;6246808;23;20476;-95
2024/01/12 05:43:52;;;;;;;39.53;6.90;;;22.30;49.90;;;;;;6246666;23;20397;-88
2024/01/12 05:46:20;;;;;;;34.07;6.70;;;22.40;50.00;;;;;;6247069;23;20451;-87
2024/01/12 05:48:48;;;;;;;28.83;6.10;;;22.30;50.50;;;;;;6246516;23;20460;-86
2024/01/12 05:51:16;;;;;;;24.77;6.63;;;22.40;50.10;;;;;;6246365;23;20416;-86
2024/01/12 05:53:42;;;;;;;23.73;5.37;;;22.40;50.40;;;;;;6246256;23;20497;-86
2024/01/12 05:56:09;;;;;;;32.10;7.20;;;22.40;50.70;;;;;;6245816;23;20429;-89
2024/01/12 05:58:36;;;;;;;22.50;5.80;;;22.40;50.70;;;;;;6245011;23;20438;-81
2024/01/12 06:01:03;;;;;;;31.40;6.77;;;22.50;50.80;;;;;;6246861;23;20884;-86
2024/01/12 06:03:30;;;;;;;16.73;5.03;;;22.50;50.80;;;;;;6252551;23;20428;-84
2024/01/12 06:05:59;;;;;;;19.73;5.23;;;22.50;50.80;;;;;;6246628;23;20436;-92
2024/01/12 06:08:26;;;;;;;20.77;5.20;;;22.50;50.70;;;;;;6245800;23;20484;-86
2024/01/12 06:10:53;;;;;;;22.77;5.50;;;22.50;50.60;;;;;;6246306;23;20428;-91
2024/01/12 06:13:19;;;;;;;21.37;5.10;;;22.60;50.50;;;;;;6247342;23;20412;-94
2024/01/12 06:15:46;;;;;;;15.80;5.23;;;22.60;50.50;;;;;;6248744;23;20451;-86
2024/01/12 06:18:14;;;;;;;14.90;6.10;;;22.70;50.40;;;;;;6245818;23;20947;-84
2024/01/12 06:20:41;;;;;;;17.30;5.07;;;22.70;50.40;;;;;;6245823;23;20508;-85
2024/01/12 06:23:10;;;;;;;19.00;5.30;;;22.70;50.70;;;;;;6245995;23;20448;-88
2024/01/12 06:25:38;;;;;;;16.10;5.07;;;22.60;50.80;;;;;;6246158;23;20487;-84
2024/01/12 06:28:05;;;;;;;24.60;4.83;;;22.60;50.80;;;;;;6246177;23;20405;-87
2024/01/12 06:54:05;;;;;;;10.07;4.70;;;22.80;50.20;;;;;;6245891;23;20473;-93
2024/01/12 06:56:37;;;;;;;10.33;4.40;;;22.70;50.50;;;;;;6245022;23;20412;-80
2024/01/12 06:59:05;;;;;;;15.83;4.40;;;22.70;50.40;;;;;;6245445;23;20888;-89
2024/01/12 07:01:32;;;;;;;8.90;4.60;;;22.70;50.40;;;;;;6246110;23;20428;-87
2024/01/12 07:03:59;;;;;;;15.33;4.50;;;22.80;50.30;;;;;;6246865;23;20899;-88
2024/01/12 08:07:11;;;;;;;20.13;10.00;;;22.30;52.20;;;;;;6246688;23;20431;-80
2024/01/12 08:09:38;;;;;;;23.57;9.90;;;22.30;51.80;;;;;;6249074;23;20449;-85
2024/01/12 08:12:06;;;;;;;26.50;10.87;;;22.50;51.60;;;;;;6253660;23;20405;-88
2024/01/12 08:14:33;;;;;;;27.63;10.47;;;22.70;51.60;;;;;;6246433;23;20397;-85
2024/01/12 09:47:21;;;;;;;10.00;5.40;;;22.60;50.90;;;;;;6193643;23;20365;-84
2024/01/12 09:49:48;;;;;;;17.10;6.00;;;22.60;50.90;;;;;;6188861;23;20503;-86
2024/01/12 09:52:15;;;;;;;12.93;6.10;;;22.60;51.00;;;;;;6217523;23;20445;-86
2024/01/12 09:54:42;;;;;;;11.60;5.77;;;22.60;51.00;;;;;;6246886;23;20444;-86
2024/01/12 09:57:10;;;;;;;9.13;5.63;;;22.60;51.00;;;;;;6246423;23;20912;-84
2024/01/12 09:59:38;;;;;;;11.23;5.80;;;22.60;51.10;;;;;;6245530;23;20979;-88
2024/01/12 10:02:09;;;;;;;9.13;5.60;;;22.60;51.00;;;;;;6246247;23;20393;-91
2024/01/12 10:04:37;;;;;;;13.63;5.77;;;22.60;51.20;;;;;;6250474;23;20431;-84
2024/01/12 10:07:04;;;;;;;9.30;5.73;;;22.60;51.10;;;;;;6248008;23;20877;-82
2024/01/12 10:09:31;;;;;;;9.70;5.60;;;22.60;51.10;;;;;;6246407;23;20955;-91
2024/01/12 10:11:59;;;;;;;9.33;5.37;;;22.60;51.70;;;;;;6247030;23;20424;-93
2024/01/12 10:14:26;;;;;;;8.47;5.70;;;22.60;51.60;;;;;;6246773;23;20407;-90
2024/01/12 10:16:54;;;;;;;7.30;4.83;;;22.60;51.00;;;;;;6246320;23;20483;-86
2024/01/12 10:19:28;;;;;;;8.40;4.60;;;22.60;51.00;;;;;;6246120;23;20407;-88
2024/01/12 10:21:57;;;;;;;8.00;5.10;;;22.60;51.10;;;;;;6246686;23;20393;-87
2024/01/12 10:24:24;;;;;;;9.30;4.63;;;22.60;51.00;;;;;;6247875;23;20900;-93
2024/01/12 10:26:51;;;;;;;8.67;5.10;;;22.60;51.00;;;;;;6250129;23;20439;-95
2024/01/12 10:29:18;;;;;;;8.23;4.10;;;22.60;51.00;;;;;;6250143;23;20471;-91
2024/01/12 10:31:48;;;;;;;10.87;4.70;;;22.60;51.00;;;;;;6250055;23;20403;-92
2024/01/12 10:34:15;;;;;;;7.30;4.60;;;22.60;50.90;;;;;;6248215;23;20407;-84
2024/01/12 10:36:42;;;;;;;6.60;4.60;;;22.60;51.00;;;;;;6255317;23;20436;-83
2024/01/12 10:39:11;;;;;;;9.20;4.50;;;22.60;51.00;;;;;;6250639;23;20401;-87
2024/01/12 10:41:41;;;;;;;5.07;4.03;;;22.60;51.00;;;;;;6247959;23;20412;-87
2024/01/12 10:44:08;;;;;;;6.80;4.17;;;22.60;51.10;;;;;;6247674;23;20424;-87
2024/01/12 10:46:37;;;;;;;6.80;3.70;;;22.60;51.00;;;;;;6248224;23;20475;-86
2024/01/12 10:49:12;;;;;;;6.50;4.03;;;22.60;51.00;;;;;;6247910;23;20476;-88
2024/01/12 10:51:44;;;;;;;6.77;4.00;;;22.60;51.00;;;;;;6247364;23;20420;-87
2024/01/12 10:54:20;;;;;;;8.47;4.47;;;22.60;51.00;;;;;;6248110;23;20424;-91
2024/01/12 10:56:47;;;;;;;5.43;4.10;;;22.60;50.90;;;;;;6247830;23;20381;-92
2024/01/12 10:59:15;;;;;;;5.10;4.13;;;22.60;51.00;;;;;;6247745;23;20432;-88
2024/01/12 11:01:42;;;;;;;4.80;4.30;;;22.60;51.00;;;;;;6250704;23;20428;-94
2024/01/12 11:04:11;;;;;;;8.73;5.07;;;22.60;50.90;;;;;;6248974;23;20451;-92
2024/01/12 11:06:40;;;;;;;5.63;4.07;;;22.60;50.90;;;;;;6247756;23;20405;-90
2024/01/12 11:09:12;;;;;;;5.67;4.03;;;22.60;50.80;;;;;;6246999;23;20404;-90
2024/01/12 11:11:47;;;;;;;6.20;3.77;;;22.60;50.80;;;;;;6250248;23;20386;-87
2024/01/12 11:14:16;;;;;;;4.57;3.60;;;22.70;50.80;;;;;;6255153;23;20387;-86
2024/01/12 11:16:43;;;;;;;7.00;4.30;;;22.70;50.80;;;;;;6249870;23;20397;-89
2024/01/12 11:19:13;;;;;;;5.57;3.63;;;22.70;50.80;;;;;;6247734;23;20432;-89
2024/01/12 11:21:42;;;;;;;8.90;4.03;;;22.70;50.80;;;;;;6248591;23;20404;-87
2024/01/12 11:24:10;;;;;;;5.40;4.17;;;22.70;50.80;;;;;;6252953;23;20500;-86
2024/01/12 11:26:37;;;;;;;5.70;3.27;;;22.70;50.90;;;;;;6249269;23;20393;-88
2024/01/12 11:29:07;;;;;;;5.13;4.07;;;22.70;50.70;;;;;;6254101;23;20404;-84
2024/01/12 11:31:34;;;;;;;8.10;3.93;;;22.70;50.70;;;;;;6247084;23;20443;-90
2024/01/12 11:34:02;;;;;;;4.00;3.57;;;22.70;50.80;;;;;;6247196;23;20912;-89
2024/01/12 11:36:30;;;;;;;5.03;3.40;;;22.70;50.60;;;;;;6247320;23;20785;-89
2024/01/12 11:39:00;;;;;;;6.30;3.67;;;22.80;50.60;;;;;;6246839;23;20433;-88
2024/01/12 11:41:31;;;;;;;4.20;3.53;;;22.80;50.60;;;;;;6247249;23;20480;-89
2024/01/12 11:43:58;;;;;;;5.50;4.00;;;22.80;50.50;;;;;;6247057;23;20398;-89
2024/01/12 11:46:29;;;;;;;6.67;3.70;;;22.80;50.50;;;;;;6247250;23;20432;-90
2024/01/12 11:48:56;;;;;;;5.80;3.83;;;22.90;50.40;;;;;;6247049;23;20393;-88
2024/01/12 11:51:24;;;;;;;4.33;3.33;;;22.90;50.30;;;;;;6246334;23;20546;-89
2024/01/12 11:53:53;;;;;;;6.97;3.50;;;22.90;50.30;;;;;;6246789;23;20575;-90
2024/01/12 11:56:21;;;;;;;5.47;3.67;;;23.00;50.30;;;;;;6246537;23;20433;-89
2024/01/12 11:58:51;;;;;;;6.10;3.60;;;23.00;50.20;;;;;;6247094;23;20401;-89
2024/01/12 12:01:18;;;;;;;5.57;4.27;;;23.00;50.20;;;;;;6247006;23;20402;-88
2024/01/12 12:03:49;;;;;;;5.10;3.70;;;23.10;50.20;;;;;;6247251;23;20739;-87
2024/01/12 12:06:16;;;;;;;6.43;4.20;;;23.00;50.30;;;;;;6247501;23;20393;-88
2024/01/12 12:08:43;;;;;;;4.63;3.90;;;23.00;50.40;;;;;;6246950;23;20413;-86
2024/01/12 12:11:12;;;;;;;3.77;3.37;;;23.00;50.40;;;;;;6249873;23;20456;-85
2024/01/12 12:13:39;;;;;;;4.10;3.70;;;23.00;50.40;;;;;;6248109;23;20705;-89
2024/01/12 12:16:07;;;;;;;4.27;3.30;;;23.00;50.50;;;;;;6249594;23;20987;-85
2024/01/12 12:18:35;;;;;;;3.87;3.13;;;23.00;50.40;;;;;;6247372;23;20401;-90
2024/01/12 12:21:03;;;;;;;5.37;3.43;;;23.00;50.50;;;;;;6247742;23;20472;-88
2024/01/12 12:23:31;;;;;;;4.97;3.77;;;23.00;50.50;;;;;;6246831;23;20433;-88
2024/01/12 12:25:58;;;;;;;4.80;3.67;;;22.90;50.40;;;;;;6246818;23;20421;-88
2024/01/12 12:28:25;;;;;;;4.47;3.33;;;22.90;50.70;;;;;;6247065;23;20491;-88
2024/01/12 12:30:53;;;;;;;4.43;3.50;;;22.90;50.70;;;;;;6246803;23;20476;-86
2024/01/12 12:33:24;;;;;;;5.40;3.80;;;22.90;50.60;;;;;;6249088;23;20389;-89
2024/01/12 12:36:05;;;;;;;6.50;3.87;;;22.80;50.70;;;;;;6246981;23;20385;-86
2024/01/12 12:38:32;;;;;;;6.27;3.43;;;22.80;50.80;;;;;;6246785;23;20416;-86
2024/01/12 12:40:59;;;;;;;6.30;3.87;;;22.80;50.80;;;;;;6246796;23;20435;-85
2024/01/12 12:43:29;;;;;;;4.23;3.27;;;22.80;50.80;;;;;;6247857;23;20413;-87
2024/01/12 12:45:56;;;;;;;5.00;3.20;;;22.80;50.70;;;;;;6247519;23;20443;-87
2024/01/12 12:48:26;;;;;;;3.80;3.30;;;22.80;50.80;;;;;;6246984;23;20476;-95
2024/01/12 12:50:53;;;;;;;4.87;3.70;;;22.80;50.80;;;;;;6245902;23;20543;-94
2024/01/12 12:53:22;;;;;;;3.83;3.50;;;22.80;50.70;;;;;;6245101;23;20487;-85
2024/01/12 12:55:49;;;;;;;4.43;4.03;;;22.80;50.80;;;;;;6245914;23;20425;-89
2024/01/12 12:58:16;;;;;;;6.23;3.87;;;22.80;50.70;;;;;;6245936;23;20448;-89
2024/01/12 13:00:43;;;;;;;3.40;3.03;;;22.80;50.70;;;;;;6245756;23;20970;-88
2024/01/12 13:03:10;;;;;;;4.27;3.87;;;22.90;50.60;;;;;;6246528;23;20404;-90
2024/01/12 13:05:38;;;;;;;3.23;2.93;;;23.00;50.60;;;;;;6245987;23;20481;-91
2024/01/12 13:08:07;;;;;;;3.80;3.23;;;22.90;50.30;;;;;;6219146;23;20408;-87
2024/01/12 13:10:35;;;;;;;5.47;3.57;;;22.90;50.10;;;;;;6246090;23;21014;-89
2024/01/12 13:13:03;;;;;;;4.90;4.40;;;22.90;50.00;;;;;;6246759;23;20928;-89
2024/01/12 13:15:30;;;;;;;5.00;4.20;;;22.90;49.70;;;;;;6246451;23;20405;-90
2024/01/12 13:17:56;;;;;;;5.70;4.87;;;22.80;49.70;;;;;;6255010;23;20428;-91
2024/01/12 13:20:23;;;;;;;4.37;3.90;;;22.80;49.50;;;;;;6246582;23;20401;-89
2024/01/12 13:22:50;;;;;;;4.93;4.43;;;22.90;49.50;;;;;;6246358;23;20768;-90
2024/01/12 13:25:17;;;;;;;5.80;4.73;;;22.90;49.40;;;;;;6245822;23;20417;-89
2024/01/12 13:27:45;;;;;;;6.60;5.17;;;22.90;49.20;;;;;;6246575;23;20489;-89
2024/01/12 13:30:14;;;;;;;6.10;4.70;;;22.90;49.20;;;;;;6246265;23;20440;-89
2024/01/12 13:32:41;;;;;;;7.77;5.13;;;23.00;49.10;;;;;;6246539;23;20401;-89
2024/01/12 13:35:08;;;;;;;5.10;4.60;;;22.90;49.10;;;;;;6246533;23;20411;-90
2024/01/12 13:37:35;;;;;;;5.70;5.20;;;23.00;49.00;;;;;;6246597;23;20738;-85
2024/01/12 13:40:02;;;;;;;5.00;4.50;;;23.00;48.90;;;;;;6245737;23;20769;-91
2024/01/12 13:42:29;;;;;;;6.17;4.73;;;22.90;48.80;;;;;;6246526;23;20463;-94
2024/01/12 13:44:59;;;;;;;8.07;6.10;;;22.90;48.90;;;;;;6246583;23;20401;-88
2024/01/12 13:47:26;;;;;;;6.83;5.50;;;22.90;48.90;;;;;;6246483;23;20472;-92
2024/01/12 13:49:53;;;;;;;5.50;4.83;;;22.90;48.90;;;;;;6246494;23;20718;-88
2024/01/12 13:52:20;;;;;;;6.00;4.40;;;22.90;48.90;;;;;;6246120;23;20524;-87
2024/01/12 13:54:47;;;;;;;6.57;5.93;;;22.80;48.30;;;;;;6245830;23;20456;-87
2024/01/12 13:57:14;;;;;;;8.50;5.60;;;22.50;47.90;;;;;;6246653;23;20489;-89
2024/01/12 13:59:41;;;;;;;8.20;5.10;;;22.30;48.30;;;;;;6248498;23;20468;-91
2024/01/12 14:02:09;;;;;;;7.43;6.00;;;22.20;48.80;;;;;;6248293;23;20428;-86
2024/01/12 14:04:36;;;;;;;11.53;5.40;;;22.20;49.20;;;;;;6248489;23;20492;-89
2024/01/12 14:07:03;;;;;;;9.50;5.73;;;22.50;50.40;;;;;;6248762;23;20405;-94
2024/01/12 14:09:30;;;;;;;5.17;4.67;;;22.60;49.70;;;;;;6248812;23;20721;-91
2024/01/12 14:11:57;;;;;;;6.40;5.80;;;22.60;49.90;;;;;;6248343;23;20825;-91
2024/01/12 14:14:24;;;;;;;6.17;5.30;;;22.60;50.10;;;;;;6248260;23;20408;-90
2024/01/12 14:16:51;;;;;;;6.90;6.20;;;22.60;50.10;;;;;;6248823;23;20761;-90
2024/01/12 14:19:19;;;;;;;8.90;6.20;;;22.70;50.60;;;;;;6248963;23;20411;-88
2024/01/12 14:21:46;;;;;;;6.03;5.43;;;22.70;50.00;;;;;;6248506;23;20493;-90
2024/01/12 14:24:13;;;;;;;6.70;5.73;;;22.70;50.00;;;;;;6248155;23;20519;-87
2024/01/12 14:26:40;;;;;;;6.20;5.60;;;22.70;50.00;;;;;;6249840;23;20775;-88
2024/01/12 14:29:07;;;;;;;7.40;6.37;;;22.70;50.00;;;;;;6248866;23;20440;-88
2024/01/12 14:31:34;;;;;;;6.50;5.20;;;22.80;50.00;;;;;;6249180;23;20459;-88
2024/01/12 14:34:04;;;;;;;6.27;5.67;;;22.80;50.00;;;;;;6252328;22;20939;-88
2024/01/12 14:36:35;;;;;;;7.10;5.80;;;22.70;50.20;;;;;;6255297;23;20409;-92
2024/01/12 14:39:04;;;;;;;9.77;5.60;;;22.80;50.20;;;;;;6253978;22;20459;-88
2024/01/12 14:41:30;;;;;;;7.33;6.03;;;22.90;49.90;;;;;;6250159;23;20433;-88
2024/01/12 14:44:05;;;;;;;6.07;5.43;;;22.90;50.10;;;;;;6249444;22;20884;-88
2024/01/12 14:46:32;;;;;;;6.90;5.53;;;22.80;50.00;;;;;;6250195;23;20388;-89
2024/01/12 14:48:59;;;;;;;10.13;5.47;;;22.80;50.10;;;;;;6254354;23;20473;-85
2024/01/12 14:51:27;;;;;;;11.43;6.03;;;22.90;50.20;;;;;;6256549;23;20824;-86
2024/01/12 14:53:55;;;;;;;9.43;5.40;;;22.90;50.20;;;;;;6250634;23;20417;-86
2024/01/12 14:56:22;;;;;;;7.37;5.73;;;23.00;50.20;;;;;;6249028;23;20752;-86
2024/01/12 14:58:51;;;;;;;9.57;6.30;;;23.00;50.10;;;;;;6253079;23;20401;-86
2024/01/12 15:01:18;;;;;;;11.70;6.47;;;23.00;49.30;;;;;;6249209;23;20405;-86
2024/01/12 15:03:46;;;;;;;9.17;6.60;;;23.00;50.00;;;;;;6253562;23;20913;-88
2024/01/12 15:06:14;;;;;;;11.40;7.27;;;23.00;50.10;;;;;;6254407;23;20401;-85
2024/01/12 15:08:41;;;;;;;19.50;9.57;;;23.10;50.30;;;;;;6250286;23;20424;-86
2024/01/12 15:11:09;;;;;;;18.20;8.90;;;23.10;50.40;;;;;;6249617;23;20475;-87
2024/01/12 15:13:36;;;;;;;17.43;9.27;;;23.10;50.70;;;;;;6249745;23;20495;-87
2024/01/12 15:16:03;;;;;;;17.93;9.57;;;23.10;50.60;;;;;;6250756;23;20432;-89
2024/01/12 15:18:31;;;;;;;27.33;8.77;;;23.10;50.60;;;;;;6252324;23;20425;-84
2024/01/12 15:20:58;;;;;;;19.70;10.03;;;23.20;50.70;;;;;;6254448;23;20451;-84
2024/01/12 15:23:26;;;;;;;12.30;8.20;;;23.10;50.70;;;;;;6253351;23;20785;-84
2024/01/12 15:25:56;;;;;;;17.53;9.13;;;23.10;50.60;;;;;;6255410;23;20487;-89
2024/01/12 15:28:25;;;;;;;15.87;9.30;;;23.10;50.70;;;;;;6257227;23;20405;-95
2024/01/12 15:30:53;;;;;;;24.50;9.00;;;23.10;51.00;;;;;;6254495;23;20433;-90
2024/01/12 15:33:22;;;;;;;61.83;10.20;;;23.10;51.00;;;;;;6254967;23;20433;-93
2024/01/12 15:35:51;;;;;;;40.57;9.90;;;23.10;51.00;;;;;;6254530;23;20409;-89
2024/01/12 15:38:19;;;;;;;27.53;9.80;;;23.10;51.40;;;;;;6251374;23;20409;-88
2024/01/12 15:40:47;;;;;;;23.60;8.77;;;23.10;51.20;;;;;;6255908;23;20409;-91